RYR8NB EPKK-LGKR
Flight info
| Callsign | RYR8NB |
|---|---|
| Flight time | 1h 43m |
| Altitude | 37000 |
| Route | BABKO DCT LITKU DCT TONDO DCT VAL/N0433F360 DCT TORTO/N0434F370 DCT AKIKA DCT PITAS |
| Aircraft | B738/M-SDE2E3FGHIRWXY/LB1 |
Departure
| Time | 2026-05-05 16:01 |
|---|---|
| Airport | Kraków John Paul II International Airport (EPKK) |
Arrival
| Time | 2026-05-05 17:44 |
|---|---|
| Airport | Corfu Ioannis Kapodistrias International Airport (LGKR) |
| Time | Latitude | Longitude | Altitude | Speed | Heading |
|---|---|---|---|---|---|
| 2026-05-05 15:31 | 50.07334 | 19.80056 | 799 ft | 0 kts | 168° |
| 2026-05-05 15:40 | 50.07335 | 19.80056 | 826 ft | 0 kts | 168° |
| 2026-05-05 15:47 | 50.07336 | 19.80056 | 799 ft | 2 kts | 168° |
| 2026-05-05 15:48 | 50.07361 | 19.80047 | 799 ft | 4 kts | 168° |
| 2026-05-05 15:48 | 50.07387 | 19.80039 | 799 ft | 4 kts | 168° |
| 2026-05-05 15:48 | 50.07409 | 19.80031 | 799 ft | 1 kts | 168° |
| 2026-05-05 15:52 | 50.07402 | 19.80040 | 799 ft | 3 kts | 134° |
| 2026-05-05 15:52 | 50.07401 | 19.80065 | 799 ft | 5 kts | 85° |
| 2026-05-05 15:53 | 50.07414 | 19.80141 | 799 ft | 9 kts | 69° |
| 2026-05-05 15:53 | 50.07430 | 19.80247 | 799 ft | 11 kts | 77° |
| 2026-05-05 15:53 | 50.07447 | 19.80350 | 799 ft | 7 kts | 67° |
| 2026-05-05 15:53 | 50.07487 | 19.80385 | 799 ft | 7 kts | 16° |
| 2026-05-05 15:54 | 50.07545 | 19.80411 | 799 ft | 10 kts | 16° |
| 2026-05-05 15:54 | 50.07613 | 19.80414 | 799 ft | 10 kts | 348° |
| 2026-05-05 15:54 | 50.07679 | 19.80392 | 799 ft | 10 kts | 348° |
| 2026-05-05 15:54 | 50.07744 | 19.80370 | 799 ft | 9 kts | 348° |
| 2026-05-05 15:55 | 50.07801 | 19.80351 | 799 ft | 8 kts | 348° |
| 2026-05-05 15:55 | 50.07838 | 19.80338 | 799 ft | 2 kts | 348° |
| 2026-05-05 15:55 | 50.07848 | 19.80335 | 799 ft | 0 kts | 348° |
| 2026-05-05 15:56 | 50.07861 | 19.80330 | 799 ft | 4 kts | 348° |
| 2026-05-05 15:56 | 50.07908 | 19.80315 | 799 ft | 9 kts | 348° |
| 2026-05-05 15:57 | 50.07965 | 19.80295 | 799 ft | 7 kts | 348° |
| 2026-05-05 15:57 | 50.07998 | 19.80284 | 798 ft | 4 kts | 348° |
| 2026-05-05 15:57 | 50.08020 | 19.80272 | 799 ft | 3 kts | 319° |
| 2026-05-05 15:57 | 50.08019 | 19.80247 | 799 ft | 0 kts | 257° |
| 2026-05-05 16:00 | 50.08003 | 19.80132 | 800 ft | 38 kts | 258° |
| 2026-05-05 16:00 | 50.07894 | 19.79345 | 799 ft | 109 kts | 258° |
| 2026-05-05 16:00 | 50.07689 | 19.77869 | 806 ft | 167 kts | 258° |
| 2026-05-05 16:00 | 50.07481 | 19.76066 | 1379 ft | 173 kts | 256° |
| 2026-05-05 16:01 | 50.07213 | 19.74241 | 2218 ft | 171 kts | 251° |
| 2026-05-05 16:01 | 50.06931 | 19.72446 | 3046 ft | 171 kts | 252° |
| 2026-05-05 16:01 | 50.06654 | 19.70577 | 3551 ft | 189 kts | 252° |
| 2026-05-05 16:01 | 50.06211 | 19.68572 | 3763 ft | 207 kts | 231° |
| 2026-05-05 16:02 | 50.04981 | 19.67323 | 4048 ft | 223 kts | 200° |
| 2026-05-05 16:02 | 50.03434 | 19.66542 | 4330 ft | 243 kts | 198° |
| 2026-05-05 16:02 | 50.01790 | 19.65764 | 5020 ft | 248 kts | 198° |
| 2026-05-05 16:02 | 50.00137 | 19.64998 | 5902 ft | 248 kts | 198° |
| 2026-05-05 16:03 | 49.98459 | 19.64219 | 6599 ft | 255 kts | 198° |
| 2026-05-05 16:03 | 49.96747 | 19.63423 | 7333 ft | 259 kts | 198° |
| 2026-05-05 16:03 | 49.95017 | 19.62617 | 8097 ft | 261 kts | 198° |
| 2026-05-05 16:03 | 49.93253 | 19.61795 | 8767 ft | 269 kts | 199° |
| 2026-05-05 16:04 | 49.91461 | 19.60959 | 9592 ft | 269 kts | 199° |
| 2026-05-05 16:04 | 49.89648 | 19.60112 | 10188 ft | 278 kts | 198° |
| 2026-05-05 16:04 | 49.87720 | 19.59211 | 10393 ft | 300 kts | 198° |
| 2026-05-05 16:04 | 49.85679 | 19.58260 | 10892 ft | 310 kts | 198° |
| 2026-05-05 16:05 | 49.83580 | 19.57282 | 11512 ft | 316 kts | 198° |
| 2026-05-05 16:05 | 49.81468 | 19.56298 | 12260 ft | 319 kts | 198° |
| 2026-05-05 16:05 | 49.79339 | 19.55309 | 13006 ft | 322 kts | 198° |
| 2026-05-05 16:05 | 49.77185 | 19.54307 | 13781 ft | 323 kts | 198° |
| 2026-05-05 16:06 | 49.75032 | 19.53308 | 14537 ft | 325 kts | 198° |
| 2026-05-05 16:06 | 49.72834 | 19.52287 | 15075 ft | 335 kts | 197° |
| 2026-05-05 16:06 | 49.70605 | 19.51252 | 15818 ft | 335 kts | 197° |
| 2026-05-05 16:06 | 49.68385 | 19.50224 | 16454 ft | 341 kts | 197° |
| 2026-05-05 16:07 | 49.66102 | 19.49164 | 17149 ft | 343 kts | 197° |
| 2026-05-05 16:07 | 49.63817 | 19.48107 | 17938 ft | 345 kts | 197° |
| 2026-05-05 16:07 | 49.61495 | 19.47146 | 18620 ft | 346 kts | 192° |
| 2026-05-05 16:08 | 49.56511 | 19.46663 | 19736 ft | 358 kts | 182° |
| 2026-05-05 16:08 | 49.54016 | 19.46599 | 20415 ft | 357 kts | 183° |
| 2026-05-05 16:08 | 49.51504 | 19.46533 | 20896 ft | 365 kts | 182° |
| 2026-05-05 16:08 | 49.48923 | 19.46457 | 21150 ft | 377 kts | 182° |
| 2026-05-05 16:09 | 49.46281 | 19.46377 | 21721 ft | 379 kts | 182° |
| 2026-05-05 16:09 | 49.43650 | 19.46295 | 22409 ft | 379 kts | 183° |
| 2026-05-05 16:09 | 49.41012 | 19.46211 | 23034 ft | 379 kts | 184° |
| 2026-05-05 16:09 | 49.38383 | 19.46126 | 23643 ft | 381 kts | 184° |
| 2026-05-05 16:10 | 49.35697 | 19.46035 | 23859 ft | 390 kts | 182° |
| 2026-05-05 16:10 | 49.32959 | 19.45941 | 24207 ft | 394 kts | 184° |
| 2026-05-05 16:10 | 49.30210 | 19.45847 | 24633 ft | 398 kts | 183° |
| 2026-05-05 16:10 | 49.27435 | 19.45755 | 25102 ft | 399 kts | 183° |
| 2026-05-05 16:11 | 49.24641 | 19.45663 | 25451 ft | 403 kts | 184° |
| 2026-05-05 16:11 | 49.16179 | 19.45386 | 26891 ft | 404 kts | 184° |
| 2026-05-05 16:12 | 49.13351 | 19.45293 | 27233 ft | 409 kts | 184° |
| 2026-05-05 16:12 | 49.07651 | 19.45101 | 28029 ft | 414 kts | 183° |
| 2026-05-05 16:13 | 48.98895 | 19.44811 | 29002 ft | 423 kts | 184° |
| 2026-05-05 16:13 | 48.95948 | 19.44713 | 29388 ft | 425 kts | 184° |
| 2026-05-05 16:13 | 48.92989 | 19.44614 | 29759 ft | 427 kts | 183° |
| 2026-05-05 16:14 | 48.87070 | 19.44417 | 30363 ft | 431 kts | 183° |
| 2026-05-05 16:14 | 48.81047 | 19.44220 | 30998 ft | 432 kts | 183° |
| 2026-05-05 16:15 | 48.75073 | 19.44025 | 31810 ft | 428 kts | 183° |
| 2026-05-05 16:15 | 48.69032 | 19.43825 | 32132 ft | 437 kts | 183° |
| 2026-05-05 16:16 | 48.62984 | 19.43629 | 32924 ft | 433 kts | 184° |
| 2026-05-05 16:16 | 48.56958 | 19.43433 | 33664 ft | 431 kts | 184° |
| 2026-05-05 16:17 | 48.50978 | 19.43240 | 34165 ft | 433 kts | 184° |
| 2026-05-05 16:17 | 48.47957 | 19.43140 | 34324 ft | 435 kts | 183° |
| 2026-05-05 16:18 | 48.41917 | 19.42946 | 34971 ft | 431 kts | 183° |
| 2026-05-05 16:18 | 48.38919 | 19.42853 | 35212 ft | 432 kts | 184° |
| 2026-05-05 16:18 | 48.32902 | 19.42656 | 35659 ft | 433 kts | 183° |
| 2026-05-05 16:19 | 48.29896 | 19.42558 | 35942 ft | 431 kts | 183° |
| 2026-05-05 16:19 | 48.26846 | 19.42459 | 36080 ft | 434 kts | 183° |
| 2026-05-05 16:19 | 48.20830 | 19.42265 | 36539 ft | 434 kts | 183° |
| 2026-05-05 16:20 | 48.14804 | 19.42071 | 36922 ft | 435 kts | 183° |
| 2026-05-05 16:20 | 48.08710 | 19.41876 | 36917 ft | 439 kts | 183° |
| 2026-05-05 16:22 | 47.93588 | 19.41397 | 36912 ft | 432 kts | 183° |
| 2026-05-05 16:23 | 47.81623 | 19.41016 | 36910 ft | 429 kts | 183° |
| 2026-05-05 16:23 | 47.72665 | 19.40732 | 36919 ft | 430 kts | 183° |
| 2026-05-05 16:24 | 47.66673 | 19.40542 | 36921 ft | 432 kts | 183° |
| 2026-05-05 16:25 | 47.57627 | 19.40258 | 36917 ft | 435 kts | 183° |
| 2026-05-05 16:25 | 47.48511 | 19.39973 | 36916 ft | 438 kts | 183° |
| 2026-05-05 16:26 | 47.36272 | 19.39592 | 36911 ft | 441 kts | 183° |
| 2026-05-05 16:27 | 47.30144 | 19.39402 | 36912 ft | 440 kts | 183° |
| 2026-05-05 16:27 | 47.24064 | 19.39214 | 36907 ft | 440 kts | 183° |
| 2026-05-05 16:28 | 47.17953 | 19.39025 | 36914 ft | 439 kts | 183° |
| 2026-05-05 16:28 | 47.11851 | 19.38837 | 36915 ft | 438 kts | 183° |
| 2026-05-05 16:29 | 47.05768 | 19.38650 | 36916 ft | 437 kts | 183° |
| 2026-05-05 16:29 | 46.99709 | 19.38464 | 36923 ft | 436 kts | 183° |
| 2026-05-05 16:30 | 46.93646 | 19.38278 | 36918 ft | 435 kts | 183° |
| 2026-05-05 16:30 | 46.87590 | 19.38093 | 36924 ft | 435 kts | 183° |
| 2026-05-05 16:31 | 46.81537 | 19.37908 | 36924 ft | 435 kts | 183° |
| 2026-05-05 16:31 | 46.75485 | 19.37724 | 36918 ft | 435 kts | 183° |
| 2026-05-05 16:32 | 46.69428 | 19.37540 | 36925 ft | 435 kts | 183° |
| 2026-05-05 16:32 | 46.63367 | 19.37356 | 36922 ft | 436 kts | 183° |
| 2026-05-05 16:33 | 46.57300 | 19.37173 | 36925 ft | 436 kts | 183° |
| 2026-05-05 16:33 | 46.51222 | 19.36990 | 36923 ft | 437 kts | 183° |
| 2026-05-05 16:34 | 46.45134 | 19.36806 | 36929 ft | 438 kts | 183° |
| 2026-05-05 16:34 | 46.39041 | 19.36624 | 36928 ft | 439 kts | 183° |
| 2026-05-05 16:35 | 46.33966 | 19.36472 | 36920 ft | 439 kts | 184° |
| 2026-05-05 16:35 | 46.27853 | 19.36289 | 36927 ft | 440 kts | 184° |
| 2026-05-05 16:36 | 46.20742 | 19.36077 | 36926 ft | 440 kts | 184° |
| 2026-05-05 16:36 | 46.15613 | 19.35924 | 36927 ft | 440 kts | 184° |
| 2026-05-05 16:37 | 46.09490 | 19.35742 | 36923 ft | 440 kts | 184° |
| 2026-05-05 16:37 | 46.03406 | 19.35887 | 36915 ft | 443 kts | 173° |
| 2026-05-05 16:38 | 45.97379 | 19.37712 | 36925 ft | 444 kts | 169° |
| 2026-05-05 16:38 | 45.91356 | 19.39674 | 36912 ft | 444 kts | 169° |
| 2026-05-05 16:39 | 45.85324 | 19.41588 | 36932 ft | 444 kts | 170° |
| 2026-05-05 16:39 | 45.79285 | 19.43461 | 36931 ft | 444 kts | 170° |
| 2026-05-05 16:40 | 45.73241 | 19.45318 | 36929 ft | 444 kts | 170° |
| 2026-05-05 16:40 | 45.67192 | 19.47172 | 36913 ft | 445 kts | 171° |
| 2026-05-05 16:41 | 45.61136 | 19.49025 | 36931 ft | 445 kts | 171° |
| 2026-05-05 16:41 | 45.55077 | 19.50876 | 36931 ft | 446 kts | 171° |
| 2026-05-05 16:42 | 45.49011 | 19.52725 | 36922 ft | 446 kts | 171° |
| 2026-05-05 16:42 | 45.42939 | 19.54571 | 36918 ft | 447 kts | 171° |
| 2026-05-05 16:43 | 45.36857 | 19.56417 | 36927 ft | 447 kts | 171° |
| 2026-05-05 16:43 | 45.30769 | 19.58260 | 36926 ft | 448 kts | 171° |
| 2026-05-05 16:44 | 45.24672 | 19.60102 | 36919 ft | 448 kts | 171° |
| 2026-05-05 16:44 | 45.18572 | 19.61941 | 36924 ft | 449 kts | 171° |
| 2026-05-05 16:45 | 45.12460 | 19.63780 | 36924 ft | 449 kts | 171° |
| 2026-05-05 16:45 | 45.06341 | 19.65617 | 36925 ft | 449 kts | 171° |
| 2026-05-05 16:46 | 45.00223 | 19.67449 | 36932 ft | 450 kts | 171° |
| 2026-05-05 16:46 | 44.94113 | 19.69275 | 36929 ft | 450 kts | 171° |
| 2026-05-05 16:47 | 44.88036 | 19.71087 | 36927 ft | 449 kts | 171° |
| 2026-05-05 16:47 | 44.81916 | 19.72908 | 36911 ft | 449 kts | 171° |
| 2026-05-05 16:48 | 44.75802 | 19.74723 | 36922 ft | 449 kts | 171° |
| 2026-05-05 16:48 | 44.69687 | 19.76535 | 36934 ft | 449 kts | 171° |
| 2026-05-05 16:49 | 44.63573 | 19.78343 | 36931 ft | 449 kts | 171° |
| 2026-05-05 16:49 | 44.57456 | 19.80147 | 36934 ft | 449 kts | 171° |
| 2026-05-05 16:50 | 44.51339 | 19.81948 | 36931 ft | 450 kts | 171° |
| 2026-05-05 16:50 | 44.45214 | 19.83747 | 36946 ft | 450 kts | 171° |
| 2026-05-05 16:51 | 44.39084 | 19.85545 | 36930 ft | 450 kts | 171° |
| 2026-05-05 16:51 | 44.32932 | 19.87079 | 36938 ft | 447 kts | 180° |
| 2026-05-05 16:52 | 44.26802 | 19.86425 | 36957 ft | 441 kts | 193° |
| 2026-05-05 16:52 | 44.20757 | 19.84989 | 36944 ft | 441 kts | 193° |
| 2026-05-05 16:53 | 44.14691 | 19.83577 | 36956 ft | 442 kts | 193° |
| 2026-05-05 16:53 | 44.08668 | 19.82227 | 36967 ft | 442 kts | 193° |
| 2026-05-05 16:54 | 44.02584 | 19.80884 | 36950 ft | 443 kts | 193° |
| 2026-05-05 16:54 | 43.96499 | 19.79544 | 36965 ft | 444 kts | 193° |
| 2026-05-05 16:55 | 43.90399 | 19.78203 | 36974 ft | 444 kts | 193° |
| 2026-05-05 16:55 | 43.84293 | 19.76862 | 36968 ft | 444 kts | 193° |
| 2026-05-05 16:56 | 43.78188 | 19.75524 | 36976 ft | 444 kts | 193° |
| 2026-05-05 16:56 | 43.72078 | 19.74187 | 36986 ft | 444 kts | 193° |
| 2026-05-05 16:57 | 43.65962 | 19.72907 | 36988 ft | 446 kts | 190° |
| 2026-05-05 16:57 | 43.59774 | 19.72139 | 36993 ft | 447 kts | 188° |
| 2026-05-05 16:58 | 43.53573 | 19.71513 | 36997 ft | 447 kts | 188° |
| 2026-05-05 16:58 | 43.47368 | 19.70856 | 36996 ft | 447 kts | 188° |
| 2026-05-05 16:59 | 43.41160 | 19.70162 | 37010 ft | 448 kts | 189° |
| 2026-05-05 16:59 | 43.34942 | 19.69461 | 37020 ft | 449 kts | 189° |
| 2026-05-05 17:00 | 43.28713 | 19.68760 | 37009 ft | 450 kts | 189° |
| 2026-05-05 17:00 | 43.22470 | 19.68059 | 37014 ft | 451 kts | 189° |
| 2026-05-05 17:01 | 43.16213 | 19.67357 | 37025 ft | 452 kts | 189° |
| 2026-05-05 17:01 | 43.09943 | 19.66657 | 37003 ft | 452 kts | 189° |
| 2026-05-05 17:02 | 43.03674 | 19.65959 | 37030 ft | 453 kts | 189° |
| 2026-05-05 17:02 | 42.97434 | 19.65267 | 37045 ft | 450 kts | 189° |
| 2026-05-05 17:03 | 42.91181 | 19.64569 | 37041 ft | 451 kts | 189° |
| 2026-05-05 17:03 | 42.84919 | 19.63875 | 37041 ft | 452 kts | 189° |
| 2026-05-05 17:04 | 42.78651 | 19.63181 | 37060 ft | 452 kts | 189° |
| 2026-05-05 17:04 | 42.72375 | 19.62488 | 37060 ft | 453 kts | 189° |
| 2026-05-05 17:05 | 42.66088 | 19.61795 | 37074 ft | 453 kts | 190° |
| 2026-05-05 17:05 | 42.59798 | 19.61103 | 37067 ft | 454 kts | 190° |
| 2026-05-05 17:06 | 42.53502 | 19.60434 | 37068 ft | 455 kts | 187° |
| 2026-05-05 17:06 | 42.47126 | 19.60791 | 37082 ft | 460 kts | 181° |
| 2026-05-05 17:07 | 42.40740 | 19.61502 | 37078 ft | 460 kts | 180° |
| 2026-05-05 17:07 | 42.34416 | 19.62177 | 37073 ft | 457 kts | 181° |
| 2026-05-05 17:08 | 42.28066 | 19.62800 | 37072 ft | 457 kts | 181° |
| 2026-05-05 17:08 | 42.21734 | 19.63393 | 37080 ft | 453 kts | 181° |
| 2026-05-05 17:09 | 42.15444 | 19.63982 | 37084 ft | 456 kts | 181° |
| 2026-05-05 17:09 | 42.09057 | 19.64574 | 37075 ft | 463 kts | 181° |
| 2026-05-05 17:10 | 42.02623 | 19.65176 | 37076 ft | 464 kts | 181° |
| 2026-05-05 17:10 | 41.96199 | 19.65777 | 37079 ft | 464 kts | 181° |
| 2026-05-05 17:11 | 41.89767 | 19.66373 | 37067 ft | 463 kts | 181° |
| 2026-05-05 17:11 | 41.83343 | 19.66973 | 37088 ft | 463 kts | 181° |
| 2026-05-05 17:12 | 41.76920 | 19.67570 | 37081 ft | 463 kts | 181° |
| 2026-05-05 17:12 | 41.70497 | 19.68165 | 37070 ft | 462 kts | 182° |
| 2026-05-05 17:13 | 41.64098 | 19.68757 | 37087 ft | 460 kts | 182° |
| 2026-05-05 17:13 | 41.57711 | 19.69346 | 37095 ft | 460 kts | 182° |
| 2026-05-05 17:14 | 41.51339 | 19.69931 | 37091 ft | 459 kts | 182° |
| 2026-05-05 17:14 | 41.45008 | 19.70516 | 36548 ft | 453 kts | 182° |
| 2026-05-05 17:15 | 41.41869 | 19.70804 | 36052 ft | 452 kts | 182° |
| 2026-05-05 17:15 | 41.38732 | 19.71091 | 35559 ft | 451 kts | 182° |
| 2026-05-05 17:15 | 41.35649 | 19.71373 | 35072 ft | 450 kts | 183° |
| 2026-05-05 17:15 | 41.32532 | 19.71658 | 34591 ft | 449 kts | 183° |
| 2026-05-05 17:16 | 41.29417 | 19.71941 | 34039 ft | 449 kts | 184° |
| 2026-05-05 17:16 | 41.26292 | 19.72223 | 33365 ft | 451 kts | 183° |
| 2026-05-05 17:16 | 41.23149 | 19.72507 | 32702 ft | 453 kts | 183° |
| 2026-05-05 17:16 | 41.20002 | 19.72791 | 32059 ft | 454 kts | 183° |
| 2026-05-05 17:17 | 41.16851 | 19.73078 | 31436 ft | 455 kts | 183° |
| 2026-05-05 17:17 | 41.13693 | 19.73365 | 30815 ft | 455 kts | 182° |
| 2026-05-05 17:17 | 41.10533 | 19.73653 | 30224 ft | 455 kts | 182° |
| 2026-05-05 17:17 | 41.07370 | 19.73941 | 29544 ft | 456 kts | 182° |
| 2026-05-05 17:18 | 41.04219 | 19.74228 | 29015 ft | 452 kts | 182° |
| 2026-05-05 17:18 | 41.01102 | 19.74514 | 28574 ft | 446 kts | 182° |
| 2026-05-05 17:18 | 40.98040 | 19.74795 | 28156 ft | 440 kts | 182° |
| 2026-05-05 17:18 | 40.95006 | 19.75071 | 27755 ft | 434 kts | 182° |
| 2026-05-05 17:19 | 40.92013 | 19.75342 | 27347 ft | 429 kts | 181° |
| 2026-05-05 17:19 | 40.89057 | 19.75609 | 26972 ft | 423 kts | 181° |
| 2026-05-05 17:19 | 40.86136 | 19.75873 | 26560 ft | 418 kts | 181° |
| 2026-05-05 17:19 | 40.83247 | 19.76132 | 26183 ft | 414 kts | 181° |
| 2026-05-05 17:20 | 40.80393 | 19.76388 | 25808 ft | 409 kts | 181° |
| 2026-05-05 17:20 | 40.77562 | 19.76642 | 25429 ft | 405 kts | 181° |
| 2026-05-05 17:20 | 40.74760 | 19.76892 | 25059 ft | 402 kts | 181° |
| 2026-05-05 17:20 | 40.71982 | 19.77141 | 24684 ft | 399 kts | 181° |
| 2026-05-05 17:21 | 40.69226 | 19.77387 | 24319 ft | 395 kts | 180° |
| 2026-05-05 17:21 | 40.66493 | 19.77631 | 23932 ft | 393 kts | 181° |
| 2026-05-05 17:21 | 40.63769 | 19.77874 | 23535 ft | 391 kts | 180° |
| 2026-05-05 17:22 | 40.58384 | 19.78356 | 22734 ft | 385 kts | 180° |
| 2026-05-05 17:22 | 40.55726 | 19.78593 | 22362 ft | 381 kts | 180° |
| 2026-05-05 17:22 | 40.53099 | 19.78828 | 21999 ft | 377 kts | 180° |
| 2026-05-05 17:22 | 40.50492 | 19.79060 | 21644 ft | 374 kts | 180° |
| 2026-05-05 17:23 | 40.47912 | 19.79290 | 21280 ft | 370 kts | 180° |
| 2026-05-05 17:23 | 40.45387 | 19.79516 | 20946 ft | 367 kts | 180° |
| 2026-05-05 17:23 | 40.42848 | 19.79744 | 20632 ft | 363 kts | 180° |
| 2026-05-05 17:23 | 40.40337 | 19.79966 | 20325 ft | 360 kts | 180° |
| 2026-05-05 17:24 | 40.37845 | 19.80189 | 19919 ft | 359 kts | 180° |
| 2026-05-05 17:24 | 40.35360 | 19.80409 | 19580 ft | 356 kts | 180° |
| 2026-05-05 17:24 | 40.32898 | 19.80625 | 19241 ft | 353 kts | 180° |
| 2026-05-05 17:24 | 40.30455 | 19.80839 | 18915 ft | 351 kts | 180° |
| 2026-05-05 17:25 | 40.28810 | 19.80984 | 18689 ft | 351 kts | 180° |
| 2026-05-05 17:25 | 40.27199 | 19.81126 | 18444 ft | 351 kts | 180° |
| 2026-05-05 17:25 | 40.23953 | 19.81413 | 17950 ft | 348 kts | 179° |
| 2026-05-05 17:25 | 40.21544 | 19.81626 | 17579 ft | 346 kts | 179° |
| 2026-05-05 17:26 | 40.19155 | 19.81838 | 17244 ft | 343 kts | 179° |
| 2026-05-05 17:26 | 40.16789 | 19.81886 | 16886 ft | 337 kts | 192° |
| 2026-05-05 17:26 | 40.14624 | 19.80924 | 16605 ft | 324 kts | 214° |
| 2026-05-05 17:26 | 40.12864 | 19.79222 | 16363 ft | 315 kts | 223° |
| 2026-05-05 17:27 | 40.11219 | 19.77371 | 16137 ft | 309 kts | 224° |
| 2026-05-05 17:27 | 40.09625 | 19.75528 | 15961 ft | 303 kts | 224° |
| 2026-05-05 17:27 | 40.08070 | 19.73719 | 15818 ft | 297 kts | 224° |
| 2026-05-05 17:27 | 40.06515 | 19.71901 | 15691 ft | 296 kts | 225° |
| 2026-05-05 17:28 | 40.04971 | 19.70087 | 15586 ft | 302 kts | 225° |
| 2026-05-05 17:28 | 40.03405 | 19.68237 | 15469 ft | 306 kts | 225° |
| 2026-05-05 17:28 | 40.01852 | 19.66398 | 15344 ft | 305 kts | 225° |
| 2026-05-05 17:28 | 40.00269 | 19.64522 | 15214 ft | 303 kts | 225° |
| 2026-05-05 17:29 | 39.98748 | 19.62714 | 15097 ft | 301 kts | 225° |
| 2026-05-05 17:29 | 39.97202 | 19.60872 | 14977 ft | 300 kts | 225° |
| 2026-05-05 17:29 | 39.95645 | 19.59013 | 14839 ft | 299 kts | 225° |
| 2026-05-05 17:29 | 39.94074 | 19.57297 | 14720 ft | 301 kts | 213° |
| 2026-05-05 17:30 | 39.92102 | 19.56392 | 14598 ft | 304 kts | 190° |
| 2026-05-05 17:30 | 39.89996 | 19.56138 | 14440 ft | 304 kts | 186° |
| 2026-05-05 17:30 | 39.87888 | 19.55987 | 14219 ft | 302 kts | 185° |
| 2026-05-05 17:30 | 39.85790 | 19.55846 | 13831 ft | 303 kts | 185° |
| 2026-05-05 17:31 | 39.83680 | 19.55701 | 13454 ft | 303 kts | 185° |
| 2026-05-05 17:31 | 39.81578 | 19.55552 | 13144 ft | 301 kts | 185° |
| 2026-05-05 17:31 | 39.79503 | 19.55568 | 12763 ft | 297 kts | 169° |
| 2026-05-05 17:31 | 39.77547 | 19.56370 | 12354 ft | 293 kts | 160° |
| 2026-05-05 17:32 | 39.75653 | 19.57316 | 11884 ft | 291 kts | 160° |
| 2026-05-05 17:32 | 39.73752 | 19.58215 | 11397 ft | 290 kts | 162° |
| 2026-05-05 17:32 | 39.71851 | 19.59061 | 10937 ft | 288 kts | 162° |
| 2026-05-05 17:32 | 39.69958 | 19.59894 | 10481 ft | 287 kts | 162° |
| 2026-05-05 17:33 | 39.68075 | 19.60724 | 10046 ft | 285 kts | 162° |
| 2026-05-05 17:33 | 39.66202 | 19.61553 | 9551 ft | 284 kts | 162° |
| 2026-05-05 17:33 | 39.64344 | 19.62379 | 9070 ft | 282 kts | 161° |
| 2026-05-05 17:33 | 39.62495 | 19.63201 | 8609 ft | 280 kts | 161° |
| 2026-05-05 17:34 | 39.60662 | 19.64017 | 8224 ft | 279 kts | 161° |
| 2026-05-05 17:34 | 39.58841 | 19.64829 | 7996 ft | 275 kts | 161° |
| 2026-05-05 17:34 | 39.57035 | 19.65634 | 7718 ft | 274 kts | 161° |
| 2026-05-05 17:34 | 39.55237 | 19.66435 | 7454 ft | 272 kts | 161° |
| 2026-05-05 17:35 | 39.53453 | 19.67229 | 7190 ft | 270 kts | 161° |
| 2026-05-05 17:35 | 39.51681 | 19.68018 | 6945 ft | 268 kts | 161° |
| 2026-05-05 17:35 | 39.49922 | 19.68801 | 6684 ft | 266 kts | 161° |
| 2026-05-05 17:35 | 39.48179 | 19.69577 | 6436 ft | 264 kts | 161° |
| 2026-05-05 17:36 | 39.46446 | 19.70347 | 6172 ft | 263 kts | 161° |
| 2026-05-05 17:36 | 39.44748 | 19.71102 | 5914 ft | 261 kts | 162° |
| 2026-05-05 17:36 | 39.43038 | 19.71861 | 5654 ft | 259 kts | 162° |
| 2026-05-05 17:36 | 39.41368 | 19.72715 | 5374 ft | 259 kts | 149° |
| 2026-05-05 17:37 | 39.40156 | 19.74398 | 5121 ft | 258 kts | 115° |
| 2026-05-05 17:37 | 39.39726 | 19.76598 | 5011 ft | 250 kts | 93° |
| 2026-05-05 17:37 | 39.39726 | 19.78809 | 4896 ft | 243 kts | 88° |
| 2026-05-05 17:37 | 39.39784 | 19.80968 | 4763 ft | 237 kts | 88° |
| 2026-05-05 17:38 | 39.39832 | 19.83063 | 4653 ft | 230 kts | 88° |
| 2026-05-05 17:38 | 39.39870 | 19.85099 | 4549 ft | 224 kts | 89° |
| 2026-05-05 17:38 | 39.39905 | 19.87116 | 4359 ft | 226 kts | 87° |
| 2026-05-05 17:38 | 39.40205 | 19.89116 | 4110 ft | 227 kts | 71° |
| 2026-05-05 17:39 | 39.40686 | 19.91047 | 3903 ft | 223 kts | 72° |
| 2026-05-05 17:39 | 39.41134 | 19.92947 | 3639 ft | 219 kts | 73° |
| 2026-05-05 17:39 | 39.41566 | 19.94801 | 3424 ft | 212 kts | 71° |
| 2026-05-05 17:39 | 39.42331 | 19.96350 | 3183 ft | 203 kts | 36° |
| 2026-05-05 17:40 | 39.43578 | 19.97009 | 2993 ft | 191 kts | 5° |
| 2026-05-05 17:40 | 39.44858 | 19.96854 | 2784 ft | 182 kts | 342° |
| 2026-05-05 17:40 | 39.46052 | 19.96401 | 2587 ft | 176 kts | 342° |
| 2026-05-05 17:40 | 39.47213 | 19.95969 | 2392 ft | 171 kts | 342° |
| 2026-05-05 17:41 | 39.48356 | 19.95542 | 2193 ft | 172 kts | 341° |
| 2026-05-05 17:41 | 39.49503 | 19.95112 | 1976 ft | 171 kts | 341° |
| 2026-05-05 17:41 | 39.50643 | 19.94684 | 1764 ft | 170 kts | 341° |
| 2026-05-05 17:41 | 39.51756 | 19.94269 | 1524 ft | 161 kts | 342° |
| 2026-05-05 17:42 | 39.52767 | 19.93892 | 1390 ft | 147 kts | 341° |
| 2026-05-05 17:42 | 39.53751 | 19.93523 | 1154 ft | 145 kts | 342° |
| 2026-05-05 17:42 | 39.54710 | 19.93162 | 958 ft | 143 kts | 342° |
| 2026-05-05 17:42 | 39.55668 | 19.92805 | 755 ft | 143 kts | 341° |
| 2026-05-05 17:43 | 39.56628 | 19.92440 | 617 ft | 144 kts | 340° |
| 2026-05-05 17:43 | 39.57559 | 19.91985 | 445 ft | 144 kts | 338° |
| 2026-05-05 17:43 | 39.58540 | 19.91636 | 216 ft | 147 kts | 348° |
| 2026-05-05 17:43 | 39.59538 | 19.91385 | 28 ft | 143 kts | 346° |
| 2026-05-05 17:44 | 39.60377 | 19.91166 | 18 ft | 94 kts | 348° |
| 2026-05-05 17:44 | 39.60828 | 19.91049 | 19 ft | 45 kts | 348° |
| 2026-05-05 17:44 | 39.61012 | 19.91004 | 18 ft | 9 kts | 2° |
| 2026-05-05 17:44 | 39.61047 | 19.91064 | 18 ft | 6 kts | 66° |
| 2026-05-05 17:45 | 39.61056 | 19.91112 | 18 ft | 6 kts | 110° |
| 2026-05-05 17:45 | 39.61020 | 19.91131 | 18 ft | 6 kts | 166° |
| 2026-05-05 17:45 | 39.60980 | 19.91143 | 18 ft | 7 kts | 166° |
| 2026-05-05 17:45 | 39.60920 | 19.91162 | 18 ft | 11 kts | 166° |
| 2026-05-05 17:46 | 39.60845 | 19.91185 | 19 ft | 11 kts | 168° |
| 2026-05-05 17:46 | 39.60774 | 19.91201 | 17 ft | 7 kts | 170° |
| 2026-05-05 17:46 | 39.60730 | 19.91216 | 18 ft | 6 kts | 137° |
| 2026-05-05 17:46 | 39.60731 | 19.91265 | 17 ft | 6 kts | 78° |
| 2026-05-05 17:47 | 39.60739 | 19.91319 | 17 ft | 5 kts | 79° |
| 2026-05-05 17:47 | 39.60742 | 19.91338 | 20 ft | 0 kts | 79° |